Umar1 — 9HA2498 — position and weather

sailwx.info

Track history (hours):
 
Tides and Currents Weather Stations Pressure Air Temp Water Temp Dewpoint Dewpoint Depression Visibility Wind Speed Wind Dir Waves Ship Positions

Umar1

Last reported at 2015-Apr-28 02:33 UTC. Time now 2015-May-04 06:01 UTC.
Position N 36°25' E 014°40'.

Length 100 m; draft 6.3 m.

Type: Ship. MMSI: 248751000.

Date/timePositionNaut miles runAvg speedWind from/ knotsBaromVisibWave heightAir tempDewpointWater temp
2015-Apr-28 02:33N 36°25' E 014°40'9 9.4
2015-Apr-28 01:33N 36°28' E 014°29'9 9.4
2015-Apr-28 00:33N 36°31' E 014°18'10 9.8
2015-Apr-27 23:33N 36°34' E 014°07'9 9.6
2015-Apr-27 22:33N 36°37' E 013°55'10 9.6
2015-Apr-27 21:33N 36°40' E 013°44'468 9.4
2015-Apr-25 19:33N 37°07' E 003°59'1010.3
2015-Apr-25 18:33N 37°06' E 003°46'1010.1
2015-Apr-25 17:33N 37°05' E 003°34'1110.5
2015-Apr-25 16:32N 37°05' E 003°20'14810.5
2015-Apr-25 02:27N 36°45' E 000°17'3210.0
2015-Apr-24 23:13N 36°38' W 000°22'7 9.5
2015-Apr-24 22:29N 36°37' W 000°31'9 9.5
2015-Apr-24 21:33N 36°36' W 000°42'30 9.7
2015-Apr-24 18:25N 36°30' W 001°18'8 9.4
2015-Apr-24 17:33N 36°29' W 001°28'11 9.3
2015-Apr-24 16:21N 36°26' W 001°42'8 9.4
2015-Apr-24 15:30N 36°25' W 001°52'9 9.3
2015-Apr-24 14:32N 36°23' W 002°03'9 9.3
2015-Apr-24 13:32N 36°22' W 002°14'10 9.9
2015-Apr-24 12:32N 36°20' W 002°26'10 9.6
2015-Apr-24 11:32N 36°19' W 002°38'11 9.3
2015-Apr-24 10:24N 36°18' W 002°51'114 9.6
2015-Apr-23 22:33N 36°01' W 005°11'1010.1
2015-Apr-23 21:33N 36°06' W 005°23'5 4.7
2015-Apr-23 20:27N 36°11' W 005°24'0 0.0
2015-Apr-23 19:33N 36°11' W 005°24'0 0.0
2015-Apr-23 00:18N 36°11' W 005°24'0 0.0
2015-Apr-22 22:15N 36°11' W 005°24'0 0.0
2015-Apr-22 21:06N 36°11' W 005°24'0 0.0
2015-Apr-22 19:30N 36°11' W 005°24'1 0.1
2015-Apr-22 04:23N 36°09' W 005°24'3 4.2
2015-Apr-22 03:33N 36°06' W 005°22'2 2.5
2015-Apr-22 02:33N 36°05' W 005°20'5 4.6
2015-Apr-22 01:33N 36°07' W 005°14'2 1.9
2015-Apr-22 00:30N 36°07' W 005°12'1 1.4
2015-Apr-21 23:33N 36°06' W 005°13'1 1.0
2015-Apr-21 22:33N 36°06' W 005°14'1 1.2
2015-Apr-21 21:33N 36°06' W 005°16'0 0.3
2015-Apr-21 20:33N 36°06' W 005°16'0 0.4
2015-Apr-21 19:33N 36°06' W 005°17'0 0.2
2015-Apr-21 18:33N 36°06' W 005°17'1 0.8
2015-Apr-21 17:33N 36°05' W 005°18'1 0.8
2015-Apr-21 16:34N 36°05' W 005°19'1 0.6
2015-Apr-21 15:33N 36°05' W 005°19'0 0.1
2015-Apr-21 14:33N 36°05' W 005°19'0 0.2
2015-Apr-21 13:33N 36°05' W 005°19'0 0.1
2015-Apr-21 12:33N 36°05' W 005°19'1 0.5
2015-Apr-21 11:33N 36°05' W 005°19'21810.7
2015-Apr-20 15:11N 36°42' W 000°52'711.2
2015-Apr-20 14:33N 36°43' W 000°44'1511.3
2015-Apr-20 13:15N 36°47' W 000°26'1011.0
2015-Apr-20 12:19N 36°49' W 000°13'810.6
2015-Apr-20 11:33N 36°51' W 000°03'1110.8
2015-Apr-20 10:33N 36°54' E 000°09'1110.7
2015-Apr-20 09:33N 36°56' E 000°22'1711.0
2015-Apr-20 08:03N 37°00' E 000°43'611.2
2015-Apr-20 07:33N 37°02' E 000°49'1110.4
2015-Apr-20 06:29N 37°05' E 001°03'9 9.4
2015-Apr-20 05:33N 37°06' E 001°14'10 9.8
2015-Apr-20 04:32N 37°09' E 001°26'1010.3
2015-Apr-20 03:33N 37°11' E 001°38'1310.6
2015-Apr-20 02:19N 37°15' E 001°54'3410.7
2015-Apr-19 23:08N 37°23' E 002°35'610.4
2015-Apr-19 22:32N 37°24' E 002°43'24710.2
2015-Apr-18 22:15N 38°23' E 007°47'29 9.9
2015-Apr-18 19:17N 38°30' E 008°23'710.1
2015-Apr-18 18:33N 38°32' E 008°33'1010.3
2015-Apr-18 17:33N 38°35' E 008°45'1010.2
2015-Apr-18 16:33N 38°37' E 008°58'10 9.7
2015-Apr-18 15:33N 38°43' E 009°08'10 9.7
2015-Apr-18 14:33N 38°50' E 009°16'1010.2
2015-Apr-18 13:33N 38°59' E 009°11'10 9.9
2015-Apr-18 12:33N 39°08' E 009°04'2 2.1
2015-Apr-18 11:33N 39°09' E 009°03'0 0.0
2015-Apr-18 10:33N 39°09' E 009°03'0 0.0
2015-Apr-18 09:33N 39°09' E 009°03'0 0.0
2015-Apr-18 08:33N 39°09' E 009°03'0 0.0
2015-Apr-18 07:33N 39°09' E 009°03'0 0.0
2015-Apr-18 06:30N 39°09' E 009°03'0 0.0
2015-Apr-18 05:33N 39°09' E 009°03'0 0.0
2015-Apr-18 04:33N 39°09' E 009°03'0 0.0
2015-Apr-18 03:33N 39°09' E 009°03'  
Track history (hours):
 
Tides and Currents Weather Stations Pressure Air Temp Water Temp Dewpoint Dewpoint Depression Visibility Wind Speed Wind Dir Waves Ship Positions

Umar1

Last reported at 2015-Apr-28 02:33 UTC. Time now 2015-May-04 06:01 UTC.
Position N 36°25' E 014°40'.

Length 100 m; draft 6.3 m.

Type: Ship. MMSI: 248751000.

Date/timePositionNaut miles runAvg speedWind from/ knotsBaromVisibWave heightAir tempDewpointWater temp
2015-Apr-28 02:33N 36°25' E 014°40'9 9.4
2015-Apr-28 01:33N 36°28' E 014°29'9 9.4
2015-Apr-28 00:33N 36°31' E 014°18'10 9.8
2015-Apr-27 23:33N 36°34' E 014°07'9 9.6
2015-Apr-27 22:33N 36°37' E 013°55'10 9.6
2015-Apr-27 21:33N 36°40' E 013°44'468 9.4
2015-Apr-25 19:33N 37°07' E 003°59'1010.3
2015-Apr-25 18:33N 37°06' E 003°46'1010.1
2015-Apr-25 17:33N 37°05' E 003°34'1110.5
2015-Apr-25 16:32N 37°05' E 003°20'14810.5
2015-Apr-25 02:27N 36°45' E 000°17'3210.0
2015-Apr-24 23:13N 36°38' W 000°22'7 9.5
2015-Apr-24 22:29N 36°37' W 000°31'9 9.5
2015-Apr-24 21:33N 36°36' W 000°42'30 9.7
2015-Apr-24 18:25N 36°30' W 001°18'8 9.4
2015-Apr-24 17:33N 36°29' W 001°28'11 9.3
2015-Apr-24 16:21N 36°26' W 001°42'8 9.4
2015-Apr-24 15:30N 36°25' W 001°52'9 9.3
2015-Apr-24 14:32N 36°23' W 002°03'9 9.3
2015-Apr-24 13:32N 36°22' W 002°14'10 9.9
2015-Apr-24 12:32N 36°20' W 002°26'10 9.6
2015-Apr-24 11:32N 36°19' W 002°38'11 9.3
2015-Apr-24 10:24N 36°18' W 002°51'114 9.6
2015-Apr-23 22:33N 36°01' W 005°11'1010.1
2015-Apr-23 21:33N 36°06' W 005°23'5 4.7
2015-Apr-23 20:27N 36°11' W 005°24'0 0.0
2015-Apr-23 19:33N 36°11' W 005°24'0 0.0
2015-Apr-23 00:18N 36°11' W 005°24'0 0.0
2015-Apr-22 22:15N 36°11' W 005°24'0 0.0
2015-Apr-22 21:06N 36°11' W 005°24'0 0.0
2015-Apr-22 19:30N 36°11' W 005°24'1 0.1
2015-Apr-22 04:23N 36°09' W 005°24'3 4.2
2015-Apr-22 03:33N 36°06' W 005°22'2 2.5
2015-Apr-22 02:33N 36°05' W 005°20'5 4.6
2015-Apr-22 01:33N 36°07' W 005°14'2 1.9
2015-Apr-22 00:30N 36°07' W 005°12'1 1.4
2015-Apr-21 23:33N 36°06' W 005°13'1 1.0
2015-Apr-21 22:33N 36°06' W 005°14'1 1.2
2015-Apr-21 21:33N 36°06' W 005°16'0 0.3
2015-Apr-21 20:33N 36°06' W 005°16'0 0.4
2015-Apr-21 19:33N 36°06' W 005°17'0 0.2
2015-Apr-21 18:33N 36°06' W 005°17'1 0.8
2015-Apr-21 17:33N 36°05' W 005°18'1 0.8
2015-Apr-21 16:34N 36°05' W 005°19'1 0.6
2015-Apr-21 15:33N 36°05' W 005°19'0 0.1
2015-Apr-21 14:33N 36°05' W 005°19'0 0.2
2015-Apr-21 13:33N 36°05' W 005°19'0 0.1
2015-Apr-21 12:33N 36°05' W 005°19'1 0.5
2015-Apr-21 11:33N 36°05' W 005°19'21810.7
2015-Apr-20 15:11N 36°42' W 000°52'711.2
2015-Apr-20 14:33N 36°43' W 000°44'1511.3
2015-Apr-20 13:15N 36°47' W 000°26'1011.0
2015-Apr-20 12:19N 36°49' W 000°13'810.6
2015-Apr-20 11:33N 36°51' W 000°03'1110.8
2015-Apr-20 10:33N 36°54' E 000°09'1110.7
2015-Apr-20 09:33N 36°56' E 000°22'1711.0
2015-Apr-20 08:03N 37°00' E 000°43'611.2
2015-Apr-20 07:33N 37°02' E 000°49'1110.4
2015-Apr-20 06:29N 37°05' E 001°03'9 9.4
2015-Apr-20 05:33N 37°06' E 001°14'10 9.8
2015-Apr-20 04:32N 37°09' E 001°26'1010.3
2015-Apr-20 03:33N 37°11' E 001°38'1310.6
2015-Apr-20 02:19N 37°15' E 001°54'3410.7
2015-Apr-19 23:08N 37°23' E 002°35'610.4
2015-Apr-19 22:32N 37°24' E 002°43'24710.2
2015-Apr-18 22:15N 38°23' E 007°47'29 9.9
2015-Apr-18 19:17N 38°30' E 008°23'710.1
2015-Apr-18 18:33N 38°32' E 008°33'1010.3
2015-Apr-18 17:33N 38°35' E 008°45'1010.2
2015-Apr-18 16:33N 38°37' E 008°58'10 9.7
2015-Apr-18 15:33N 38°43' E 009°08'10 9.7
2015-Apr-18 14:33N 38°50' E 009°16'1010.2
2015-Apr-18 13:33N 38°59' E 009°11'10 9.9
2015-Apr-18 12:33N 39°08' E 009°04'2 2.1
2015-Apr-18 11:33N 39°09' E 009°03'0 0.0
2015-Apr-18 10:33N 39°09' E 009°03'0 0.0
2015-Apr-18 09:33N 39°09' E 009°03'0 0.0
2015-Apr-18 08:33N 39°09' E 009°03'0 0.0
2015-Apr-18 07:33N 39°09' E 009°03'0 0.0
2015-Apr-18 06:30N 39°09' E 009°03'0 0.0
2015-Apr-18 05:33N 39°09' E 009°03'0 0.0
2015-Apr-18 04:33N 39°09' E 009°03'0 0.0
2015-Apr-18 03:33N 39°09' E 009°03'  

Dump ship's entire track history